sensor_id;sensor_type;location;lat;lon;timestamp;P1;durP1;ratioP1;P2;durP2;ratioP2
8803;SDS011;4438;50.890;4.726;2022-12-18T00:02:16;31.10;;;20.07;;
8803;SDS011;4438;50.890;4.726;2022-12-18T00:04:42;35.40;;;21.53;;
8803;SDS011;4438;50.890;4.726;2022-12-18T00:07:08;35.90;;;22.63;;
8803;SDS011;4438;50.890;4.726;2022-12-18T00:09:34;33.37;;;22.03;;
8803;SDS011;4438;50.890;4.726;2022-12-18T00:12:00;31.23;;;20.07;;
8803;SDS011;4438;50.890;4.726;2022-12-18T00:14:26;33.07;;;20.80;;
8803;SDS011;4438;50.890;4.726;2022-12-18T00:16:52;34.07;;;21.80;;
8803;SDS011;4438;50.890;4.726;2022-12-18T00:19:18;36.43;;;22.33;;
8803;SDS011;4438;50.890;4.726;2022-12-18T00:21:44;31.53;;;22.63;;
8803;SDS011;4438;50.890;4.726;2022-12-18T00:24:11;32.93;;;22.13;;
8803;SDS011;4438;50.890;4.726;2022-12-18T00:26:38;32.73;;;21.20;;
8803;SDS011;4438;50.890;4.726;2022-12-18T00:29:10;33.67;;;22.43;;
8803;SDS011;4438;50.890;4.726;2022-12-18T00:31:38;31.60;;;20.67;;
8803;SDS011;4438;50.890;4.726;2022-12-18T00:34:04;33.57;;;21.77;;
8803;SDS011;4438;50.890;4.726;2022-12-18T00:36:32;33.20;;;22.33;;
8803;SDS011;4438;50.890;4.726;2022-12-18T00:38:58;33.27;;;21.97;;
8803;SDS011;4438;50.890;4.726;2022-12-18T00:41:25;32.03;;;21.57;;
8803;SDS011;4438;50.890;4.726;2022-12-18T00:44:10;34.97;;;22.73;;
8803;SDS011;4438;50.890;4.726;2022-12-18T00:46:37;30.43;;;20.03;;
8803;SDS011;4438;50.890;4.726;2022-12-18T00:49:03;29.93;;;19.93;;
8803;SDS011;4438;50.890;4.726;2022-12-18T00:51:29;30.67;;;20.60;;
8803;SDS011;4438;50.890;4.726;2022-12-18T00:53:55;28.57;;;18.67;;
8803;SDS011;4438;50.890;4.726;2022-12-18T00:56:22;31.77;;;19.47;;
8803;SDS011;4438;50.890;4.726;2022-12-18T00:58:48;30.10;;;19.37;;
8803;SDS011;4438;50.890;4.726;2022-12-18T01:01:14;30.63;;;19.67;;
8803;SDS011;4438;50.890;4.726;2022-12-18T01:03:40;29.93;;;19.33;;
8803;SDS011;4438;50.890;4.726;2022-12-18T01:06:11;29.90;;;19.70;;
8803;SDS011;4438;50.890;4.726;2022-12-18T01:08:37;27.00;;;18.27;;
8803;SDS011;4438;50.890;4.726;2022-12-18T01:11:07;28.30;;;19.10;;
8803;SDS011;4438;50.890;4.726;2022-12-18T01:13:34;31.60;;;18.57;;
8803;SDS011;4438;50.890;4.726;2022-12-18T01:16:00;28.33;;;17.43;;
8803;SDS011;4438;50.890;4.726;2022-12-18T01:18:26;30.20;;;19.23;;
8803;SDS011;4438;50.890;4.726;2022-12-18T01:20:52;27.83;;;18.80;;
8803;SDS011;4438;50.890;4.726;2022-12-18T01:23:18;30.90;;;19.33;;
8803;SDS011;4438;50.890;4.726;2022-12-18T01:25:44;27.97;;;18.97;;
8803;SDS011;4438;50.890;4.726;2022-12-18T01:28:10;30.60;;;20.20;;
8803;SDS011;4438;50.890;4.726;2022-12-18T01:30:36;31.43;;;18.60;;
8803;SDS011;4438;50.890;4.726;2022-12-18T01:33:06;26.07;;;18.50;;
8803;SDS011;4438;50.890;4.726;2022-12-18T01:35:32;28.40;;;17.60;;
8803;SDS011;4438;50.890;4.726;2022-12-18T01:37:58;26.93;;;18.53;;
8803;SDS011;4438;50.890;4.726;2022-12-18T01:40:24;26.90;;;17.07;;
8803;SDS011;4438;50.890;4.726;2022-12-18T01:42:53;26.90;;;17.63;;
8803;SDS011;4438;50.890;4.726;2022-12-18T01:45:24;29.53;;;18.63;;
8803;SDS011;4438;50.890;4.726;2022-12-18T01:47:52;25.57;;;17.93;;
8803;SDS011;4438;50.890;4.726;2022-12-18T01:50:20;27.27;;;18.50;;
8803;SDS011;4438;50.890;4.726;2022-12-18T01:52:48;26.90;;;18.47;;
8803;SDS011;4438;50.890;4.726;2022-12-18T01:55:14;26.87;;;18.30;;
8803;SDS011;4438;50.890;4.726;2022-12-18T01:57:42;28.93;;;17.83;;
8803;SDS011;4438;50.890;4.726;2022-12-18T02:00:13;24.33;;;17.03;;
8803;SDS011;4438;50.890;4.726;2022-12-18T02:02:40;28.23;;;17.40;;
8803;SDS011;4438;50.890;4.726;2022-12-18T02:05:07;27.07;;;17.63;;
8803;SDS011;4438;50.890;4.726;2022-12-18T02:07:46;25.03;;;17.57;;
8803;SDS011;4438;50.890;4.726;2022-12-18T02:10:25;25.97;;;17.37;;
8803;SDS011;4438;50.890;4.726;2022-12-18T02:12:56;24.87;;;17.37;;
8803;SDS011;4438;50.890;4.726;2022-12-18T02:15:27;28.80;;;18.67;;
8803;SDS011;4438;50.890;4.726;2022-12-18T02:17:58;27.97;;;17.27;;
8803;SDS011;4438;50.890;4.726;2022-12-18T02:20:33;29.07;;;19.73;;
8803;SDS011;4438;50.890;4.726;2022-12-18T02:23:04;28.30;;;18.63;;
8803;SDS011;4438;50.890;4.726;2022-12-18T02:25:51;26.70;;;17.50;;
8803;SDS011;4438;50.890;4.726;2022-12-18T02:28:19;28.43;;;19.00;;
8803;SDS011;4438;50.890;4.726;2022-12-18T02:30:46;25.00;;;17.37;;
8803;SDS011;4438;50.890;4.726;2022-12-18T02:33:13;28.07;;;18.50;;
8803;SDS011;4438;50.890;4.726;2022-12-18T02:35:40;25.90;;;18.10;;
8803;SDS011;4438;50.890;4.726;2022-12-18T02:38:07;26.87;;;18.17;;
8803;SDS011;4438;50.890;4.726;2022-12-18T02:40:33;27.30;;;17.73;;
8803;SDS011;4438;50.890;4.726;2022-12-18T02:43:07;29.13;;;18.23;;
8803;SDS011;4438;50.890;4.726;2022-12-18T02:45:33;26.57;;;18.30;;
8803;SDS011;4438;50.890;4.726;2022-12-18T02:47:59;27.00;;;17.43;;
8803;SDS011;4438;50.890;4.726;2022-12-18T02:50:36;25.37;;;17.57;;
8803;SDS011;4438;50.890;4.726;2022-12-18T02:53:06;25.00;;;16.67;;
8803;SDS011;4438;50.890;4.726;2022-12-18T02:58:09;23.47;;;16.80;;
8803;SDS011;4438;50.890;4.726;2022-12-18T03:00:42;25.83;;;17.17;;
8803;SDS011;4438;50.890;4.726;2022-12-18T03:03:21;26.30;;;17.20;;
8803;SDS011;4438;50.890;4.726;2022-12-18T03:05:51;24.07;;;15.87;;
8803;SDS011;4438;50.890;4.726;2022-12-18T03:08:19;25.23;;;16.23;;
8803;SDS011;4438;50.890;4.726;2022-12-18T03:10:51;24.23;;;16.63;;
8803;SDS011;4438;50.890;4.726;2022-12-18T03:13:20;25.73;;;15.90;;
8803;SDS011;4438;50.890;4.726;2022-12-18T03:15:49;23.37;;;16.53;;
8803;SDS011;4438;50.890;4.726;2022-12-18T03:18:18;23.97;;;16.07;;
8803;SDS011;4438;50.890;4.726;2022-12-18T03:20:46;20.33;;;15.03;;
8803;SDS011;4438;50.890;4.726;2022-12-18T03:23:15;25.30;;;15.87;;
8803;SDS011;4438;50.890;4.726;2022-12-18T03:25:42;23.57;;;15.70;;
8803;SDS011;4438;50.890;4.726;2022-12-18T03:28:10;23.37;;;15.80;;
8803;SDS011;4438;50.890;4.726;2022-12-18T03:30:38;25.13;;;16.40;;
8803;SDS011;4438;50.890;4.726;2022-12-18T03:35:39;22.57;;;15.53;;
8803;SDS011;4438;50.890;4.726;2022-12-18T03:38:07;24.77;;;16.57;;
8803;SDS011;4438;50.890;4.726;2022-12-18T03:40:45;24.60;;;15.87;;
8803;SDS011;4438;50.890;4.726;2022-12-18T03:43:19;26.47;;;16.77;;
8803;SDS011;4438;50.890;4.726;2022-12-18T03:45:59;26.57;;;17.30;;
8803;SDS011;4438;50.890;4.726;2022-12-18T03:48:29;24.03;;;16.00;;
8803;SDS011;4438;50.890;4.726;2022-12-18T03:50:59;25.90;;;16.83;;
8803;SDS011;4438;50.890;4.726;2022-12-18T03:56:03;27.37;;;16.90;;
8803;SDS011;4438;50.890;4.726;2022-12-18T03:58:29;24.77;;;16.63;;
8803;SDS011;4438;50.890;4.726;2022-12-18T04:00:58;26.33;;;16.57;;
8803;SDS011;4438;50.890;4.726;2022-12-18T04:03:26;26.57;;;16.83;;
8803;SDS011;4438;50.890;4.726;2022-12-18T04:05:54;24.87;;;16.83;;
8803;SDS011;4438;50.890;4.726;2022-12-18T04:08:21;24.60;;;16.60;;
8803;SDS011;4438;50.890;4.726;2022-12-18T04:10:47;24.47;;;17.00;;
8803;SDS011;4438;50.890;4.726;2022-12-18T04:13:21;24.53;;;16.50;;
8803;SDS011;4438;50.890;4.726;2022-12-18T04:15:47;25.47;;;16.20;;
8803;SDS011;4438;50.890;4.726;2022-12-18T04:18:13;23.90;;;16.60;;
8803;SDS011;4438;50.890;4.726;2022-12-18T04:20:39;24.13;;;16.13;;
8803;SDS011;4438;50.890;4.726;2022-12-18T04:23:05;28.53;;;17.40;;
8803;SDS011;4438;50.890;4.726;2022-12-18T04:25:31;24.53;;;17.47;;
8803;SDS011;4438;50.890;4.726;2022-12-18T04:27:57;26.53;;;16.87;;
8803;SDS011;4438;50.890;4.726;2022-12-18T04:30:23;27.60;;;16.57;;
8803;SDS011;4438;50.890;4.726;2022-12-18T04:32:49;24.27;;;16.30;;
8803;SDS011;4438;50.890;4.726;2022-12-18T04:35:16;24.50;;;16.00;;
8803;SDS011;4438;50.890;4.726;2022-12-18T04:37:42;24.53;;;16.37;;
8803;SDS011;4438;50.890;4.726;2022-12-18T04:40:08;23.57;;;16.57;;
8803;SDS011;4438;50.890;4.726;2022-12-18T04:42:34;26.20;;;16.87;;
8803;SDS011;4438;50.890;4.726;2022-12-18T04:45:00;24.77;;;15.90;;
8803;SDS011;4438;50.890;4.726;2022-12-18T04:47:26;25.80;;;16.65;;
8803;SDS011;4438;50.890;4.726;2022-12-18T04:49:52;22.02;;;15.52;;
8803;SDS011;4438;50.890;4.726;2022-12-18T04:52:19;22.80;;;15.23;;
8803;SDS011;4438;50.890;4.726;2022-12-18T04:54:45;22.00;;;16.00;;
8803;SDS011;4438;50.890;4.726;2022-12-18T04:57:11;23.17;;;15.70;;
8803;SDS011;4438;50.890;4.726;2022-12-18T04:59:37;22.80;;;15.20;;
8803;SDS011;4438;50.890;4.726;2022-12-18T05:02:03;21.27;;;14.67;;
8803;SDS011;4438;50.890;4.726;2022-12-18T05:04:29;22.07;;;14.83;;
8803;SDS011;4438;50.890;4.726;2022-12-18T05:06:55;22.33;;;14.77;;
8803;SDS011;4438;50.890;4.726;2022-12-18T05:09:21;19.13;;;14.37;;
8803;SDS011;4438;50.890;4.726;2022-12-18T05:11:47;22.97;;;14.87;;
8803;SDS011;4438;50.890;4.726;2022-12-18T05:14:13;18.73;;;14.13;;
8803;SDS011;4438;50.890;4.726;2022-12-18T05:16:39;19.53;;;14.30;;
8803;SDS011;4438;50.890;4.726;2022-12-18T05:19:05;20.80;;;14.37;;
8803;SDS011;4438;50.890;4.726;2022-12-18T05:21:32;20.73;;;14.32;;
8803;SDS011;4438;50.890;4.726;2022-12-18T05:23:58;23.30;;;15.03;;
8803;SDS011;4438;50.890;4.726;2022-12-18T05:26:24;22.13;;;15.10;;
8803;SDS011;4438;50.890;4.726;2022-12-18T05:28:50;21.00;;;14.70;;
8803;SDS011;4438;50.890;4.726;2022-12-18T05:31:16;22.17;;;15.10;;
8803;SDS011;4438;50.890;4.726;2022-12-18T05:33:42;22.50;;;15.13;;
8803;SDS011;4438;50.890;4.726;2022-12-18T05:36:08;22.17;;;15.23;;
8803;SDS011;4438;50.890;4.726;2022-12-18T05:38:36;22.23;;;15.10;;
8803;SDS011;4438;50.890;4.726;2022-12-18T05:41:03;21.50;;;15.27;;
8803;SDS011;4438;50.890;4.726;2022-12-18T05:43:30;23.93;;;16.17;;
8803;SDS011;4438;50.890;4.726;2022-12-18T05:45:56;22.70;;;15.27;;
8803;SDS011;4438;50.890;4.726;2022-12-18T05:48:22;23.47;;;15.83;;
8803;SDS011;4438;50.890;4.726;2022-12-18T05:50:49;20.17;;;14.43;;
8803;SDS011;4438;50.890;4.726;2022-12-18T05:53:16;23.07;;;15.83;;
8803;SDS011;4438;50.890;4.726;2022-12-18T05:55:42;21.15;;;14.43;;
8803;SDS011;4438;50.890;4.726;2022-12-18T05:58:09;19.30;;;14.80;;
8803;SDS011;4438;50.890;4.726;2022-12-18T06:00:36;22.52;;;15.60;;
8803;SDS011;4438;50.890;4.726;2022-12-18T06:03:06;22.20;;;16.30;;
8803;SDS011;4438;50.890;4.726;2022-12-18T06:05:36;21.60;;;15.30;;
8803;SDS011;4438;50.890;4.726;2022-12-18T06:08:02;20.60;;;15.33;;
8803;SDS011;4438;50.890;4.726;2022-12-18T06:10:29;23.60;;;15.97;;
8803;SDS011;4438;50.890;4.726;2022-12-18T06:12:55;21.03;;;15.40;;
8803;SDS011;4438;50.890;4.726;2022-12-18T06:15:21;24.53;;;16.80;;
8803;SDS011;4438;50.890;4.726;2022-12-18T06:17:47;23.47;;;16.27;;
8803;SDS011;4438;50.890;4.726;2022-12-18T06:20:13;21.15;;;16.58;;
8803;SDS011;4438;50.890;4.726;2022-12-18T06:22:40;22.40;;;15.93;;
8803;SDS011;4438;50.890;4.726;2022-12-18T06:25:06;22.90;;;16.10;;
8803;SDS011;4438;50.890;4.726;2022-12-18T06:27:32;21.90;;;16.20;;
8803;SDS011;4438;50.890;4.726;2022-12-18T06:30:01;23.17;;;16.97;;
8803;SDS011;4438;50.890;4.726;2022-12-18T06:32:27;21.40;;;15.63;;
8803;SDS011;4438;50.890;4.726;2022-12-18T06:34:53;22.27;;;15.57;;
8803;SDS011;4438;50.890;4.726;2022-12-18T06:37:20;22.80;;;15.77;;
8803;SDS011;4438;50.890;4.726;2022-12-18T06:39:49;21.87;;;15.57;;
8803;SDS011;4438;50.890;4.726;2022-12-18T06:42:15;23.87;;;16.03;;
8803;SDS011;4438;50.890;4.726;2022-12-18T06:44:41;18.77;;;14.90;;
8803;SDS011;4438;50.890;4.726;2022-12-18T06:47:07;23.33;;;16.00;;
8803;SDS011;4438;50.890;4.726;2022-12-18T06:49:33;23.23;;;16.30;;
8803;SDS011;4438;50.890;4.726;2022-12-18T06:51:59;22.13;;;16.43;;
8803;SDS011;4438;50.890;4.726;2022-12-18T06:54:25;22.47;;;16.13;;
8803;SDS011;4438;50.890;4.726;2022-12-18T06:56:51;21.50;;;15.40;;
8803;SDS011;4438;50.890;4.726;2022-12-18T06:59:17;21.15;;;15.63;;
8803;SDS011;4438;50.890;4.726;2022-12-18T07:01:43;21.63;;;15.07;;
8803;SDS011;4438;50.890;4.726;2022-12-18T07:04:09;19.90;;;14.97;;
8803;SDS011;4438;50.890;4.726;2022-12-18T07:06:36;21.37;;;15.27;;
8803;SDS011;4438;50.890;4.726;2022-12-18T07:09:02;22.63;;;16.10;;
8803;SDS011;4438;50.890;4.726;2022-12-18T07:11:28;24.77;;;14.97;;
8803;SDS011;4438;50.890;4.726;2022-12-18T07:13:54;21.10;;;15.00;;
8803;SDS011;4438;50.890;4.726;2022-12-18T07:16:20;21.00;;;15.20;;
8803;SDS011;4438;50.890;4.726;2022-12-18T07:18:47;21.70;;;15.18;;
8803;SDS011;4438;50.890;4.726;2022-12-18T07:21:14;25.73;;;15.88;;
8803;SDS011;4438;50.890;4.726;2022-12-18T07:23:41;22.00;;;14.33;;
8803;SDS011;4438;50.890;4.726;2022-12-18T07:26:09;21.27;;;14.10;;
8803;SDS011;4438;50.890;4.726;2022-12-18T07:28:38;20.02;;;14.02;;
8803;SDS011;4438;50.890;4.726;2022-12-18T07:31:09;23.10;;;14.67;;
8803;SDS011;4438;50.890;4.726;2022-12-18T07:33:35;21.98;;;15.02;;
8803;SDS011;4438;50.890;4.726;2022-12-18T07:36:05;21.60;;;15.07;;
8803;SDS011;4438;50.890;4.726;2022-12-18T07:38:32;23.67;;;15.33;;
8803;SDS011;4438;50.890;4.726;2022-12-18T07:41:01;19.58;;;14.10;;
8803;SDS011;4438;50.890;4.726;2022-12-18T07:43:28;23.10;;;14.60;;
8803;SDS011;4438;50.890;4.726;2022-12-18T07:45:54;19.27;;;13.83;;
8803;SDS011;4438;50.890;4.726;2022-12-18T07:48:20;20.67;;;14.10;;
8803;SDS011;4438;50.890;4.726;2022-12-18T07:50:46;20.92;;;15.50;;
8803;SDS011;4438;50.890;4.726;2022-12-18T07:53:12;20.90;;;15.03;;
8803;SDS011;4438;50.890;4.726;2022-12-18T07:55:39;22.33;;;15.48;;
8803;SDS011;4438;50.890;4.726;2022-12-18T07:58:06;21.90;;;15.20;;
8803;SDS011;4438;50.890;4.726;2022-12-18T08:00:33;25.55;;;16.92;;
8803;SDS011;4438;50.890;4.726;2022-12-18T08:02:59;25.53;;;15.83;;
8803;SDS011;4438;50.890;4.726;2022-12-18T08:05:25;24.65;;;16.52;;
8803;SDS011;4438;50.890;4.726;2022-12-18T08:07:51;24.75;;;16.50;;
8803;SDS011;4438;50.890;4.726;2022-12-18T08:10:17;23.42;;;15.25;;
8803;SDS011;4438;50.890;4.726;2022-12-18T08:12:43;26.30;;;17.02;;
8803;SDS011;4438;50.890;4.726;2022-12-18T08:15:10;24.85;;;16.80;;
8803;SDS011;4438;50.890;4.726;2022-12-18T08:17:36;22.75;;;16.50;;
8803;SDS011;4438;50.890;4.726;2022-12-18T08:20:02;21.00;;;15.32;;
8803;SDS011;4438;50.890;4.726;2022-12-18T08:22:28;22.57;;;15.07;;
8803;SDS011;4438;50.890;4.726;2022-12-18T08:24:54;23.47;;;15.03;;
8803;SDS011;4438;50.890;4.726;2022-12-18T08:27:20;23.33;;;15.43;;
8803;SDS011;4438;50.890;4.726;2022-12-18T08:29:46;21.93;;;15.00;;
8803;SDS011;4438;50.890;4.726;2022-12-18T08:32:13;20.13;;;14.10;;
8803;SDS011;4438;50.890;4.726;2022-12-18T08:34:39;20.07;;;13.90;;
8803;SDS011;4438;50.890;4.726;2022-12-18T08:37:05;22.53;;;14.13;;
8803;SDS011;4438;50.890;4.726;2022-12-18T08:39:31;19.03;;;13.87;;
8803;SDS011;4438;50.890;4.726;2022-12-18T08:41:57;18.17;;;13.00;;
8803;SDS011;4438;50.890;4.726;2022-12-18T08:44:42;21.23;;;13.80;;
8803;SDS011;4438;50.890;4.726;2022-12-18T08:47:08;19.27;;;13.03;;
8803;SDS011;4438;50.890;4.726;2022-12-18T08:49:34;19.70;;;13.80;;
8803;SDS011;4438;50.890;4.726;2022-12-18T08:52:01;19.00;;;13.33;;
8803;SDS011;4438;50.890;4.726;2022-12-18T08:54:27;22.13;;;14.17;;
8803;SDS011;4438;50.890;4.726;2022-12-18T08:56:54;15.90;;;12.53;;
8803;SDS011;4438;50.890;4.726;2022-12-18T08:59:20;17.63;;;13.10;;
8803;SDS011;4438;50.890;4.726;2022-12-18T09:01:46;19.20;;;13.00;;
8803;SDS011;4438;50.890;4.726;2022-12-18T09:04:13;18.67;;;13.67;;
8803;SDS011;4438;50.890;4.726;2022-12-18T09:06:39;19.47;;;13.57;;
8803;SDS011;4438;50.890;4.726;2022-12-18T09:09:05;20.73;;;13.77;;
8803;SDS011;4438;50.890;4.726;2022-12-18T09:11:32;17.93;;;13.30;;
8803;SDS011;4438;50.890;4.726;2022-12-18T09:14:00;19.70;;;12.87;;
8803;SDS011;4438;50.890;4.726;2022-12-18T09:16:26;18.27;;;12.27;;
8803;SDS011;4438;50.890;4.726;2022-12-18T09:18:54;17.47;;;12.57;;
8803;SDS011;4438;50.890;4.726;2022-12-18T09:21:24;19.63;;;12.87;;
8803;SDS011;4438;50.890;4.726;2022-12-18T09:23:51;15.53;;;12.17;;
8803;SDS011;4438;50.890;4.726;2022-12-18T09:26:17;16.17;;;11.80;;
8803;SDS011;4438;50.890;4.726;2022-12-18T09:28:43;17.20;;;11.47;;
8803;SDS011;4438;50.890;4.726;2022-12-18T09:31:10;17.77;;;12.17;;
8803;SDS011;4438;50.890;4.726;2022-12-18T09:33:36;17.07;;;12.13;;
8803;SDS011;4438;50.890;4.726;2022-12-18T09:36:03;18.07;;;11.73;;
8803;SDS011;4438;50.890;4.726;2022-12-18T09:38:30;16.47;;;12.07;;
8803;SDS011;4438;50.890;4.726;2022-12-18T09:41:00;16.63;;;12.13;;
8803;SDS011;4438;50.890;4.726;2022-12-18T09:43:29;15.17;;;11.77;;
8803;SDS011;4438;50.890;4.726;2022-12-18T09:46:00;18.27;;;12.87;;
8803;SDS011;4438;50.890;4.726;2022-12-18T09:48:28;20.73;;;12.70;;
8803;SDS011;4438;50.890;4.726;2022-12-18T09:50:57;20.37;;;13.63;;
8803;SDS011;4438;50.890;4.726;2022-12-18T09:53:25;17.63;;;12.53;;
8803;SDS011;4438;50.890;4.726;2022-12-18T09:55:52;17.53;;;13.40;;
8803;SDS011;4438;50.890;4.726;2022-12-18T10:00:54;18.73;;;11.87;;
8803;SDS011;4438;50.890;4.726;2022-12-18T10:03:21;16.67;;;12.10;;
8803;SDS011;4438;50.890;4.726;2022-12-18T10:08:33;15.97;;;11.97;;
8803;SDS011;4438;50.890;4.726;2022-12-18T10:13:52;16.37;;;11.97;;
8803;SDS011;4438;50.890;4.726;2022-12-18T10:16:23;15.87;;;11.37;;
8803;SDS011;4438;50.890;4.726;2022-12-18T10:21:34;18.37;;;12.73;;
8803;SDS011;4438;50.890;4.726;2022-12-18T10:24:08;19.33;;;12.70;;
8803;SDS011;4438;50.890;4.726;2022-12-18T10:26:39;16.50;;;12.40;;
8803;SDS011;4438;50.890;4.726;2022-12-18T10:29:11;16.80;;;12.77;;
8803;SDS011;4438;50.890;4.726;2022-12-18T10:31:37;15.93;;;12.50;;
8803;SDS011;4438;50.890;4.726;2022-12-18T10:34:04;17.77;;;13.57;;
8803;SDS011;4438;50.890;4.726;2022-12-18T10:36:30;17.67;;;13.27;;
8803;SDS011;4438;50.890;4.726;2022-12-18T10:39:13;16.67;;;13.10;;
8803;SDS011;4438;50.890;4.726;2022-12-18T10:41:40;18.40;;;13.60;;
8803;SDS011;4438;50.890;4.726;2022-12-18T10:44:15;17.37;;;13.10;;
8803;SDS011;4438;50.890;4.726;2022-12-18T10:46:43;16.57;;;12.60;;
8803;SDS011;4438;50.890;4.726;2022-12-18T10:49:19;17.23;;;13.13;;
8803;SDS011;4438;50.890;4.726;2022-12-18T10:51:47;17.07;;;13.10;;
8803;SDS011;4438;50.890;4.726;2022-12-18T10:54:23;19.70;;;13.30;;
8803;SDS011;4438;50.890;4.726;2022-12-18T10:56:49;16.43;;;13.03;;
8803;SDS011;4438;50.890;4.726;2022-12-18T10:59:17;16.57;;;14.00;;
8803;SDS011;4438;50.890;4.726;2022-12-18T11:04:16;18.73;;;13.43;;
8803;SDS011;4438;50.890;4.726;2022-12-18T11:07:01;18.30;;;13.77;;
8803;SDS011;4438;50.890;4.726;2022-12-18T11:09:31;18.33;;;14.20;;
8803;SDS011;4438;50.890;4.726;2022-12-18T11:15:23;20.03;;;14.03;;
8803;SDS011;4438;50.890;4.726;2022-12-18T11:17:51;17.23;;;13.90;;
8803;SDS011;4438;50.890;4.726;2022-12-18T11:20:27;18.70;;;14.33;;
8803;SDS011;4438;50.890;4.726;2022-12-18T11:23:04;19.53;;;14.97;;
8803;SDS011;4438;50.890;4.726;2022-12-18T11:25:31;19.57;;;14.10;;
8803;SDS011;4438;50.890;4.726;2022-12-18T11:27:59;21.17;;;15.07;;
8803;SDS011;4438;50.890;4.726;2022-12-18T11:30:30;17.97;;;14.13;;
8803;SDS011;4438;50.890;4.726;2022-12-18T11:32:58;18.33;;;13.83;;
8803;SDS011;4438;50.890;4.726;2022-12-18T11:38:28;19.50;;;15.37;;
8803;SDS011;4438;50.890;4.726;2022-12-18T11:40:55;21.37;;;15.83;;
8803;SDS011;4438;50.890;4.726;2022-12-18T11:43:25;23.57;;;16.67;;
8803;SDS011;4438;50.890;4.726;2022-12-18T11:45:53;21.67;;;16.10;;
8803;SDS011;4438;50.890;4.726;2022-12-18T11:48:22;20.53;;;15.80;;
8803;SDS011;4438;50.890;4.726;2022-12-18T11:50:50;21.40;;;16.27;;
8803;SDS011;4438;50.890;4.726;2022-12-18T11:53:17;21.47;;;16.43;;
8803;SDS011;4438;50.890;4.726;2022-12-18T11:55:52;20.97;;;16.53;;
8803;SDS011;4438;50.890;4.726;2022-12-18T12:00:56;22.83;;;16.33;;
8803;SDS011;4438;50.890;4.726;2022-12-18T12:17:18;21.87;;;16.37;;
8803;SDS011;4438;50.890;4.726;2022-12-18T12:27:20;21.97;;;16.30;;
8803;SDS011;4438;50.890;4.726;2022-12-18T12:39:51;24.87;;;17.33;;
8803;SDS011;4438;50.890;4.726;2022-12-18T12:42:20;24.30;;;15.37;;
8803;SDS011;4438;50.890;4.726;2022-12-18T12:45:13;20.00;;;15.27;;
8803;SDS011;4438;50.890;4.726;2022-12-18T12:47:41;20.47;;;15.60;;
8803;SDS011;4438;50.890;4.726;2022-12-18T12:50:12;21.00;;;15.63;;
8803;SDS011;4438;50.890;4.726;2022-12-18T12:52:45;22.87;;;16.20;;
8803;SDS011;4438;50.890;4.726;2022-12-18T12:55:25;22.73;;;15.23;;
8803;SDS011;4438;50.890;4.726;2022-12-18T13:00:45;19.53;;;15.33;;
8803;SDS011;4438;50.890;4.726;2022-12-18T13:03:18;19.73;;;14.80;;
8803;SDS011;4438;50.890;4.726;2022-12-18T13:08:11;19.27;;;15.00;;
8803;SDS011;4438;50.890;4.726;2022-12-18T13:10:47;19.27;;;14.93;;
8803;SDS011;4438;50.890;4.726;2022-12-18T13:13:13;19.43;;;14.53;;
8803;SDS011;4438;50.890;4.726;2022-12-18T13:16:04;20.30;;;14.50;;
8803;SDS011;4438;50.890;4.726;2022-12-18T13:18:30;19.93;;;14.60;;
8803;SDS011;4438;50.890;4.726;2022-12-18T13:31:53;19.20;;;13.63;;
8803;SDS011;4438;50.890;4.726;2022-12-18T13:34:20;19.20;;;14.20;;
8803;SDS011;4438;50.890;4.726;2022-12-18T13:36:46;20.07;;;14.53;;
8803;SDS011;4438;50.890;4.726;2022-12-18T13:41:42;21.63;;;15.27;;
8803;SDS011;4438;50.890;4.726;2022-12-18T13:46:50;18.40;;;13.70;;
8803;SDS011;4438;50.890;4.726;2022-12-18T13:51:55;18.73;;;14.80;;
8803;SDS011;4438;50.890;4.726;2022-12-18T13:54:38;24.80;;;17.90;;
8803;SDS011;4438;50.890;4.726;2022-12-18T13:57:12;20.20;;;14.73;;
8803;SDS011;4438;50.890;4.726;2022-12-18T13:59:50;20.13;;;14.43;;
8803;SDS011;4438;50.890;4.726;2022-12-18T14:02:17;20.33;;;14.90;;
8803;SDS011;4438;50.890;4.726;2022-12-18T14:04:47;22.03;;;14.57;;
8803;SDS011;4438;50.890;4.726;2022-12-18T14:09:40;20.80;;;15.57;;
8803;SDS011;4438;50.890;4.726;2022-12-18T14:12:13;22.43;;;16.00;;
8803;SDS011;4438;50.890;4.726;2022-12-18T14:14:59;28.57;;;19.77;;
8803;SDS011;4438;50.890;4.726;2022-12-18T14:17:25;23.37;;;15.90;;
8803;SDS011;4438;50.890;4.726;2022-12-18T14:19:52;23.30;;;15.17;;
8803;SDS011;4438;50.890;4.726;2022-12-18T14:22:20;19.23;;;14.30;;
8803;SDS011;4438;50.890;4.726;2022-12-18T14:24:46;19.97;;;14.80;;
8803;SDS011;4438;50.890;4.726;2022-12-18T14:27:19;19.77;;;14.50;;
8803;SDS011;4438;50.890;4.726;2022-12-18T14:29:46;21.77;;;15.33;;
8803;SDS011;4438;50.890;4.726;2022-12-18T14:32:21;21.03;;;14.97;;
8803;SDS011;4438;50.890;4.726;2022-12-18T14:34:48;22.17;;;17.13;;
8803;SDS011;4438;50.890;4.726;2022-12-18T14:37:20;24.53;;;17.77;;
8803;SDS011;4438;50.890;4.726;2022-12-18T14:39:56;29.20;;;18.77;;
8803;SDS011;4438;50.890;4.726;2022-12-18T14:42:23;25.27;;;17.00;;
8803;SDS011;4438;50.890;4.726;2022-12-18T14:47:42;42.10;;;24.63;;
8803;SDS011;4438;50.890;4.726;2022-12-18T14:50:12;33.87;;;20.73;;
8803;SDS011;4438;50.890;4.726;2022-12-18T14:52:39;62.90;;;34.80;;
8803;SDS011;4438;50.890;4.726;2022-12-18T14:55:05;56.23;;;32.77;;
8803;SDS011;4438;50.890;4.726;2022-12-18T14:57:39;32.40;;;22.97;;
8803;SDS011;4438;50.890;4.726;2022-12-18T15:00:15;25.97;;;18.87;;
8803;SDS011;4438;50.890;4.726;2022-12-18T15:02:41;26.60;;;20.37;;
8803;SDS011;4438;50.890;4.726;2022-12-18T15:05:25;25.67;;;17.03;;
8803;SDS011;4438;50.890;4.726;2022-12-18T15:07:52;24.83;;;17.53;;
8803;SDS011;4438;50.890;4.726;2022-12-18T15:10:20;26.17;;;17.70;;
8803;SDS011;4438;50.890;4.726;2022-12-18T15:12:50;27.03;;;18.00;;
8803;SDS011;4438;50.890;4.726;2022-12-18T15:20:41;25.47;;;17.57;;
8803;SDS011;4438;50.890;4.726;2022-12-18T15:23:24;25.43;;;17.40;;
8803;SDS011;4438;50.890;4.726;2022-12-18T15:26:11;29.37;;;18.77;;
8803;SDS011;4438;50.890;4.726;2022-12-18T15:28:38;36.17;;;23.97;;
8803;SDS011;4438;50.890;4.726;2022-12-18T15:31:06;29.63;;;19.50;;
8803;SDS011;4438;50.890;4.726;2022-12-18T15:33:59;27.50;;;19.20;;
8803;SDS011;4438;50.890;4.726;2022-12-18T15:36:25;27.20;;;19.57;;
8803;SDS011;4438;50.890;4.726;2022-12-18T15:38:52;28.27;;;19.20;;
8803;SDS011;4438;50.890;4.726;2022-12-18T15:41:20;28.93;;;19.43;;
8803;SDS011;4438;50.890;4.726;2022-12-18T15:43:46;29.10;;;18.60;;
8803;SDS011;4438;50.890;4.726;2022-12-18T15:46:17;27.57;;;18.20;;
8803;SDS011;4438;50.890;4.726;2022-12-18T15:48:44;25.30;;;17.60;;
8803;SDS011;4438;50.890;4.726;2022-12-18T15:54:09;28.73;;;17.80;;
8803;SDS011;4438;50.890;4.726;2022-12-18T15:56:36;26.80;;;17.23;;
8803;SDS011;4438;50.890;4.726;2022-12-18T15:59:22;28.93;;;18.57;;
8803;SDS011;4438;50.890;4.726;2022-12-18T16:01:49;24.83;;;17.80;;
8803;SDS011;4438;50.890;4.726;2022-12-18T16:04:18;28.47;;;19.00;;
8803;SDS011;4438;50.890;4.726;2022-12-18T16:06:47;25.80;;;17.70;;
8803;SDS011;4438;50.890;4.726;2022-12-18T16:09:13;28.70;;;18.47;;
8803;SDS011;4438;50.890;4.726;2022-12-18T16:11:41;25.27;;;17.47;;
8803;SDS011;4438;50.890;4.726;2022-12-18T16:16:40;26.70;;;17.67;;
8803;SDS011;4438;50.890;4.726;2022-12-18T16:19:06;28.10;;;18.47;;
8803;SDS011;4438;50.890;4.726;2022-12-18T16:21:33;27.43;;;18.67;;
8803;SDS011;4438;50.890;4.726;2022-12-18T16:23:59;26.53;;;18.57;;
8803;SDS011;4438;50.890;4.726;2022-12-18T16:26:25;28.03;;;18.73;;
8803;SDS011;4438;50.890;4.726;2022-12-18T16:28:51;29.47;;;19.30;;
8803;SDS011;4438;50.890;4.726;2022-12-18T16:31:18;29.03;;;19.03;;
8803;SDS011;4438;50.890;4.726;2022-12-18T16:33:44;28.40;;;18.60;;
8803;SDS011;4438;50.890;4.726;2022-12-18T16:36:10;29.37;;;19.20;;
8803;SDS011;4438;50.890;4.726;2022-12-18T16:38:36;28.63;;;19.43;;